sensor_id;sensor_type;location;lat;lon;timestamp;temperature;humidity
837;DHT22;400;53.550;9.932;2023-05-10T00:00:45;16.10;75.00
837;DHT22;400;53.550;9.932;2023-05-10T00:03:12;16.00;75.30
837;DHT22;400;53.550;9.932;2023-05-10T00:05:40;16.00;75.40
837;DHT22;400;53.550;9.932;2023-05-10T00:08:06;15.90;75.80
837;DHT22;400;53.550;9.932;2023-05-10T00:10:33;16.00;76.00
837;DHT22;400;53.550;9.932;2023-05-10T00:13:00;15.90;76.20
837;DHT22;400;53.550;9.932;2023-05-10T00:15:27;16.00;76.40
837;DHT22;400;53.550;9.932;2023-05-10T00:17:57;16.00;76.60
837;DHT22;400;53.550;9.932;2023-05-10T00:20:24;15.90;76.70
837;DHT22;400;53.550;9.932;2023-05-10T00:22:51;15.90;76.90
837;DHT22;400;53.550;9.932;2023-05-10T00:25:18;15.90;77.20
837;DHT22;400;53.550;9.932;2023-05-10T00:27:47;15.90;77.40
837;DHT22;400;53.550;9.932;2023-05-10T00:30:14;15.90;77.70
837;DHT22;400;53.550;9.932;2023-05-10T00:32:40;15.80;77.90
837;DHT22;400;53.550;9.932;2023-05-10T00:35:10;15.80;78.20
837;DHT22;400;53.550;9.932;2023-05-10T00:37:37;15.80;78.40
837;DHT22;400;53.550;9.932;2023-05-10T00:40:05;15.80;78.70
837;DHT22;400;53.550;9.932;2023-05-10T00:42:32;15.70;79.00
837;DHT22;400;53.550;9.932;2023-05-10T00:44:59;15.60;79.50
837;DHT22;400;53.550;9.932;2023-05-10T00:47:26;15.60;79.70
837;DHT22;400;53.550;9.932;2023-05-10T00:49:53;15.60;80.00
837;DHT22;400;53.550;9.932;2023-05-10T00:52:22;15.60;80.20
837;DHT22;400;53.550;9.932;2023-05-10T00:54:50;15.60;80.30
837;DHT22;400;53.550;9.932;2023-05-10T00:57:20;15.60;80.50
837;DHT22;400;53.550;9.932;2023-05-10T00:59:50;15.60;80.70
837;DHT22;400;53.550;9.932;2023-05-10T01:02:17;15.60;80.90
837;DHT22;400;53.550;9.932;2023-05-10T01:04:44;15.50;81.00
837;DHT22;400;53.550;9.932;2023-05-10T01:07:12;15.50;81.20
837;DHT22;400;53.550;9.932;2023-05-10T01:09:40;15.60;81.40
837;DHT22;400;53.550;9.932;2023-05-10T01:12:07;15.50;81.50
837;DHT22;400;53.550;9.932;2023-05-10T01:14:34;15.50;81.70
837;DHT22;400;53.550;9.932;2023-05-10T01:17:03;15.50;82.00
837;DHT22;400;53.550;9.932;2023-05-10T01:19:31;15.40;82.40
837;DHT22;400;53.550;9.932;2023-05-10T01:22:06;15.30;82.80
837;DHT22;400;53.550;9.932;2023-05-10T01:27:47;15.30;83.10
837;DHT22;400;53.550;9.932;2023-05-10T01:30:45;15.20;83.30
837;DHT22;400;53.550;9.932;2023-05-10T01:33:19;15.20;83.60
837;DHT22;400;53.550;9.932;2023-05-10T01:35:53;15.20;83.80
837;DHT22;400;53.550;9.932;2023-05-10T01:38:28;15.20;83.90
837;DHT22;400;53.550;9.932;2023-05-10T01:41:04;15.10;84.00
837;DHT22;400;53.550;9.932;2023-05-10T01:43:42;15.10;84.20
837;DHT22;400;53.550;9.932;2023-05-10T01:46:17;15.10;84.40
837;DHT22;400;53.550;9.932;2023-05-10T01:48:51;15.10;84.40
837;DHT22;400;53.550;9.932;2023-05-10T01:51:22;15.10;84.60
837;DHT22;400;53.550;9.932;2023-05-10T01:53:50;15.10;84.70
837;DHT22;400;53.550;9.932;2023-05-10T01:56:20;15.10;84.70
837;DHT22;400;53.550;9.932;2023-05-10T01:58:49;15.10;85.00
837;DHT22;400;53.550;9.932;2023-05-10T02:01:17;15.10;85.20
837;DHT22;400;53.550;9.932;2023-05-10T02:03:47;15.10;85.30
837;DHT22;400;53.550;9.932;2023-05-10T02:06:18;15.10;85.50
837;DHT22;400;53.550;9.932;2023-05-10T02:08:47;15.10;86.20
837;DHT22;400;53.550;9.932;2023-05-10T02:11:17;15.00;86.30
837;DHT22;400;53.550;9.932;2023-05-10T02:13:47;15.00;86.90
837;DHT22;400;53.550;9.932;2023-05-10T02:16:16;15.00;87.10
837;DHT22;400;53.550;9.932;2023-05-10T02:18:45;15.10;87.40
837;DHT22;400;53.550;9.932;2023-05-10T02:21:15;15.00;87.50
837;DHT22;400;53.550;9.932;2023-05-10T02:23:45;15.00;87.60
837;DHT22;400;53.550;9.932;2023-05-10T02:26:14;14.90;87.70
837;DHT22;400;53.550;9.932;2023-05-10T02:28:42;14.90;88.00
837;DHT22;400;53.550;9.932;2023-05-10T02:31:10;14.90;88.10
837;DHT22;400;53.550;9.932;2023-05-10T02:33:38;14.90;88.20
837;DHT22;400;53.550;9.932;2023-05-10T02:36:07;14.90;88.20
837;DHT22;400;53.550;9.932;2023-05-10T02:38:37;14.90;88.30
837;DHT22;400;53.550;9.932;2023-05-10T02:41:05;14.90;88.40
837;DHT22;400;53.550;9.932;2023-05-10T02:43:34;14.80;88.10
837;DHT22;400;53.550;9.932;2023-05-10T02:46:02;14.80;88.20
837;DHT22;400;53.550;9.932;2023-05-10T02:48:29;14.70;88.40
837;DHT22;400;53.550;9.932;2023-05-10T02:51:00;14.70;89.40
837;DHT22;400;53.550;9.932;2023-05-10T02:53:31;14.60;88.60
837;DHT22;400;53.550;9.932;2023-05-10T02:56:05;14.60;88.70
837;DHT22;400;53.550;9.932;2023-05-10T02:58:36;14.60;88.90
837;DHT22;400;53.550;9.932;2023-05-10T03:01:08;14.50;89.10
837;DHT22;400;53.550;9.932;2023-05-10T03:03:40;14.50;89.50
837;DHT22;400;53.550;9.932;2023-05-10T03:06:09;14.50;89.60
837;DHT22;400;53.550;9.932;2023-05-10T03:08:37;14.50;89.70
837;DHT22;400;53.550;9.932;2023-05-10T03:11:18;14.40;89.60
837;DHT22;400;53.550;9.932;2023-05-10T03:13:56;14.40;89.60
837;DHT22;400;53.550;9.932;2023-05-10T03:16:38;14.40;90.00
837;DHT22;400;53.550;9.932;2023-05-10T03:19:11;14.40;90.00
837;DHT22;400;53.550;9.932;2023-05-10T03:21:41;14.40;90.10
837;DHT22;400;53.550;9.932;2023-05-10T03:24:12;14.30;90.20
837;DHT22;400;53.550;9.932;2023-05-10T03:26:43;14.30;90.20
837;DHT22;400;53.550;9.932;2023-05-10T03:29:12;14.30;90.20
837;DHT22;400;53.550;9.932;2023-05-10T03:31:39;14.40;90.30
837;DHT22;400;53.550;9.932;2023-05-10T03:34:06;14.30;90.40
837;DHT22;400;53.550;9.932;2023-05-10T03:36:33;14.20;90.40
837;DHT22;400;53.550;9.932;2023-05-10T03:39:00;14.20;90.60
837;DHT22;400;53.550;9.932;2023-05-10T03:41:28;14.20;90.70
837;DHT22;400;53.550;9.932;2023-05-10T03:44:00;14.10;90.80
837;DHT22;400;53.550;9.932;2023-05-10T03:46:29;14.20;90.90
837;DHT22;400;53.550;9.932;2023-05-10T03:48:56;14.20;90.90
837;DHT22;400;53.550;9.932;2023-05-10T03:51:23;14.20;91.00
837;DHT22;400;53.550;9.932;2023-05-10T03:53:53;14.20;90.90
837;DHT22;400;53.550;9.932;2023-05-10T03:56:21;14.30;90.90
837;DHT22;400;53.550;9.932;2023-05-10T03:58:47;14.20;91.00
837;DHT22;400;53.550;9.932;2023-05-10T04:01:16;14.20;91.00
837;DHT22;400;53.550;9.932;2023-05-10T04:03:43;14.10;90.90
837;DHT22;400;53.550;9.932;2023-05-10T04:06:12;14.20;91.10
837;DHT22;400;53.550;9.932;2023-05-10T04:08:44;14.20;91.20
837;DHT22;400;53.550;9.932;2023-05-10T04:11:13;14.20;91.20
837;DHT22;400;53.550;9.932;2023-05-10T04:13:40;14.10;91.20
837;DHT22;400;53.550;9.932;2023-05-10T04:16:09;14.20;91.30
837;DHT22;400;53.550;9.932;2023-05-10T04:18:37;14.10;91.30
837;DHT22;400;53.550;9.932;2023-05-10T04:21:10;14.10;91.40
837;DHT22;400;53.550;9.932;2023-05-10T04:23:37;14.00;91.50
837;DHT22;400;53.550;9.932;2023-05-10T04:26:04;14.10;91.50
837;DHT22;400;53.550;9.932;2023-05-10T04:28:31;14.20;91.50
837;DHT22;400;53.550;9.932;2023-05-10T04:31:04;14.10;91.50
837;DHT22;400;53.550;9.932;2023-05-10T04:33:34;14.10;91.50
837;DHT22;400;53.550;9.932;2023-05-10T04:36:08;14.20;91.60
837;DHT22;400;53.550;9.932;2023-05-10T04:38:35;14.20;91.60
837;DHT22;400;53.550;9.932;2023-05-10T04:41:06;14.30;91.60
837;DHT22;400;53.550;9.932;2023-05-10T04:43:34;14.30;91.50
837;DHT22;400;53.550;9.932;2023-05-10T04:46:01;14.30;91.50
837;DHT22;400;53.550;9.932;2023-05-10T04:48:29;14.20;91.60
837;DHT22;400;53.550;9.932;2023-05-10T04:50:56;14.30;91.70
837;DHT22;400;53.550;9.932;2023-05-10T04:53:25;14.30;91.60
837;DHT22;400;53.550;9.932;2023-05-10T04:55:52;14.40;91.70
837;DHT22;400;53.550;9.932;2023-05-10T04:58:19;14.40;91.60
837;DHT22;400;53.550;9.932;2023-05-10T05:00:46;14.50;91.60
837;DHT22;400;53.550;9.932;2023-05-10T05:03:12;14.50;91.40
837;DHT22;400;53.550;9.932;2023-05-10T05:05:40;14.60;91.50
837;DHT22;400;53.550;9.932;2023-05-10T05:08:06;14.60;91.40
837;DHT22;400;53.550;9.932;2023-05-10T05:10:35;14.60;91.40
837;DHT22;400;53.550;9.932;2023-05-10T05:13:04;14.60;91.50
837;DHT22;400;53.550;9.932;2023-05-10T05:15:37;14.70;91.50
837;DHT22;400;53.550;9.932;2023-05-10T05:18:10;14.60;91.50
837;DHT22;400;53.550;9.932;2023-05-10T05:20:38;14.60;91.60
837;DHT22;400;53.550;9.932;2023-05-10T05:23:05;14.70;91.60
837;DHT22;400;53.550;9.932;2023-05-10T05:25:38;14.80;91.60
837;DHT22;400;53.550;9.932;2023-05-10T05:28:12;14.80;91.50
837;DHT22;400;53.550;9.932;2023-05-10T05:30:44;14.80;91.60
837;DHT22;400;53.550;9.932;2023-05-10T05:33:11;14.80;91.60
837;DHT22;400;53.550;9.932;2023-05-10T05:35:39;14.80;91.60
837;DHT22;400;53.550;9.932;2023-05-10T05:38:08;14.80;91.60
837;DHT22;400;53.550;9.932;2023-05-10T05:40:44;14.90;91.70
837;DHT22;400;53.550;9.932;2023-05-10T05:43:14;15.00;91.60
837;DHT22;400;53.550;9.932;2023-05-10T05:45:42;15.00;91.50
837;DHT22;400;53.550;9.932;2023-05-10T05:48:09;15.10;91.50
837;DHT22;400;53.550;9.932;2023-05-10T05:50:36;15.10;91.60
837;DHT22;400;53.550;9.932;2023-05-10T05:53:03;15.20;91.50
837;DHT22;400;53.550;9.932;2023-05-10T05:55:45;15.20;91.40
837;DHT22;400;53.550;9.932;2023-05-10T05:58:23;15.30;91.40
837;DHT22;400;53.550;9.932;2023-05-10T06:00:53;15.40;91.30
837;DHT22;400;53.550;9.932;2023-05-10T06:03:21;15.40;91.20
837;DHT22;400;53.550;9.932;2023-05-10T06:05:48;15.40;91.10
837;DHT22;400;53.550;9.932;2023-05-10T06:08:15;15.50;91.40
837;DHT22;400;53.550;9.932;2023-05-10T06:10:43;15.60;91.20
837;DHT22;400;53.550;9.932;2023-05-10T06:13:10;15.50;91.00
837;DHT22;400;53.550;9.932;2023-05-10T06:15:37;15.70;91.20
837;DHT22;400;53.550;9.932;2023-05-10T06:18:04;15.70;91.00
837;DHT22;400;53.550;9.932;2023-05-10T06:20:32;15.80;91.00
837;DHT22;400;53.550;9.932;2023-05-10T06:22:58;15.90;91.30
837;DHT22;400;53.550;9.932;2023-05-10T06:25:27;16.00;90.90
837;DHT22;400;53.550;9.932;2023-05-10T06:27:57;16.10;90.70
837;DHT22;400;53.550;9.932;2023-05-10T06:30:25;16.10;90.70
837;DHT22;400;53.550;9.932;2023-05-10T06:32:54;16.10;90.70
837;DHT22;400;53.550;9.932;2023-05-10T06:35:21;16.20;90.80
837;DHT22;400;53.550;9.932;2023-05-10T06:37:52;16.30;90.80
837;DHT22;400;53.550;9.932;2023-05-10T06:40:20;16.30;90.80
837;DHT22;400;53.550;9.932;2023-05-10T06:42:48;16.40;90.80
837;DHT22;400;53.550;9.932;2023-05-10T06:45:17;16.50;90.80
837;DHT22;400;53.550;9.932;2023-05-10T06:47:44;16.50;90.60
837;DHT22;400;53.550;9.932;2023-05-10T06:50:13;16.60;90.90
837;DHT22;400;53.550;9.932;2023-05-10T06:52:40;16.60;90.80
837;DHT22;400;53.550;9.932;2023-05-10T06:55:08;16.60;91.10
837;DHT22;400;53.550;9.932;2023-05-10T06:57:35;16.70;91.00
837;DHT22;400;53.550;9.932;2023-05-10T07:00:04;16.80;90.90
837;DHT22;400;53.550;9.932;2023-05-10T07:02:32;16.80;90.70
837;DHT22;400;53.550;9.932;2023-05-10T07:04:59;16.90;90.70
837;DHT22;400;53.550;9.932;2023-05-10T07:07:28;17.10;90.60
837;DHT22;400;53.550;9.932;2023-05-10T07:09:55;17.10;90.60
837;DHT22;400;53.550;9.932;2023-05-10T07:12:23;17.20;90.60
837;DHT22;400;53.550;9.932;2023-05-10T07:14:50;17.30;90.50
837;DHT22;400;53.550;9.932;2023-05-10T07:17:17;17.40;90.40
837;DHT22;400;53.550;9.932;2023-05-10T07:19:47;17.50;90.50
837;DHT22;400;53.550;9.932;2023-05-10T07:22:15;17.60;90.30
837;DHT22;400;53.550;9.932;2023-05-10T07:24:45;17.60;90.10
837;DHT22;400;53.550;9.932;2023-05-10T07:27:14;17.70;90.30
837;DHT22;400;53.550;9.932;2023-05-10T07:29:42;17.80;90.00
837;DHT22;400;53.550;9.932;2023-05-10T07:32:12;17.80;89.50
837;DHT22;400;53.550;9.932;2023-05-10T07:34:41;17.90;89.30
837;DHT22;400;53.550;9.932;2023-05-10T07:37:09;18.00;89.50
837;DHT22;400;53.550;9.932;2023-05-10T07:39:39;18.00;89.20
837;DHT22;400;53.550;9.932;2023-05-10T07:42:13;18.10;88.90
837;DHT22;400;53.550;9.932;2023-05-10T07:44:44;18.10;88.30
837;DHT22;400;53.550;9.932;2023-05-10T07:47:16;18.10;88.40
837;DHT22;400;53.550;9.932;2023-05-10T07:49:48;18.20;88.30
837;DHT22;400;53.550;9.932;2023-05-10T07:52:21;18.20;88.10
837;DHT22;400;53.550;9.932;2023-05-10T07:54:50;18.30;87.90
837;DHT22;400;53.550;9.932;2023-05-10T07:57:18;18.30;88.10
837;DHT22;400;53.550;9.932;2023-05-10T07:59:48;18.40;88.80
837;DHT22;400;53.550;9.932;2023-05-10T08:02:20;18.40;88.90
837;DHT22;400;53.550;9.932;2023-05-10T08:04:52;18.40;88.60
837;DHT22;400;53.550;9.932;2023-05-10T08:07:24;18.40;88.70
837;DHT22;400;53.550;9.932;2023-05-10T08:09:51;18.50;89.30
837;DHT22;400;53.550;9.932;2023-05-10T08:12:18;18.50;88.50
837;DHT22;400;53.550;9.932;2023-05-10T08:14:46;18.50;88.60
837;DHT22;400;53.550;9.932;2023-05-10T08:17:13;18.50;89.60
837;DHT22;400;53.550;9.932;2023-05-10T08:19:41;18.60;89.00
837;DHT22;400;53.550;9.932;2023-05-10T08:22:08;18.70;88.50
837;DHT22;400;53.550;9.932;2023-05-10T08:24:37;18.70;89.00
837;DHT22;400;53.550;9.932;2023-05-10T08:27:04;18.70;89.40
837;DHT22;400;53.550;9.932;2023-05-10T08:29:32;18.80;89.80
837;DHT22;400;53.550;9.932;2023-05-10T08:32:00;18.80;89.50
837;DHT22;400;53.550;9.932;2023-05-10T08:34:27;18.90;89.90
837;DHT22;400;53.550;9.932;2023-05-10T08:36:54;18.90;89.90
837;DHT22;400;53.550;9.932;2023-05-10T08:39:24;19.00;89.60
837;DHT22;400;53.550;9.932;2023-05-10T08:41:54;19.00;89.40
837;DHT22;400;53.550;9.932;2023-05-10T08:44:24;19.10;89.80
837;DHT22;400;53.550;9.932;2023-05-10T08:46:54;19.10;89.80
837;DHT22;400;53.550;9.932;2023-05-10T08:49:21;19.00;90.10
837;DHT22;400;53.550;9.932;2023-05-10T08:51:57;19.00;90.00
837;DHT22;400;53.550;9.932;2023-05-10T08:54:27;19.00;89.70
837;DHT22;400;53.550;9.932;2023-05-10T08:56:56;19.10;90.30
837;DHT22;400;53.550;9.932;2023-05-10T08:59:24;19.10;90.70
837;DHT22;400;53.550;9.932;2023-05-10T09:01:52;19.10;91.00
837;DHT22;400;53.550;9.932;2023-05-10T09:04:21;19.00;90.20
837;DHT22;400;53.550;9.932;2023-05-10T09:06:48;19.10;90.90
837;DHT22;400;53.550;9.932;2023-05-10T09:09:15;19.10;91.30
837;DHT22;400;53.550;9.932;2023-05-10T09:11:42;19.20;91.70
837;DHT22;400;53.550;9.932;2023-05-10T09:14:13;19.30;91.90
837;DHT22;400;53.550;9.932;2023-05-10T09:16:44;19.30;92.50
837;DHT22;400;53.550;9.932;2023-05-10T09:19:13;19.30;92.60
837;DHT22;400;53.550;9.932;2023-05-10T09:21:42;19.40;92.50
837;DHT22;400;53.550;9.932;2023-05-10T09:24:10;19.40;91.80
837;DHT22;400;53.550;9.932;2023-05-10T09:26:46;19.30;91.70
837;DHT22;400;53.550;9.932;2023-05-10T09:29:15;19.30;91.90
837;DHT22;400;53.550;9.932;2023-05-10T09:31:48;19.30;92.10
837;DHT22;400;53.550;9.932;2023-05-10T09:34:29;19.20;93.30
837;DHT22;400;53.550;9.932;2023-05-10T09:37:00;19.20;93.60
837;DHT22;400;53.550;9.932;2023-05-10T09:39:34;19.20;93.90
837;DHT22;400;53.550;9.932;2023-05-10T09:42:04;19.10;94.60
837;DHT22;400;53.550;9.932;2023-05-10T09:44:34;19.10;94.80
837;DHT22;400;53.550;9.932;2023-05-10T09:47:01;19.00;94.90
837;DHT22;400;53.550;9.932;2023-05-10T09:49:31;18.90;96.00
837;DHT22;400;53.550;9.932;2023-05-10T09:52:09;18.90;96.10
837;DHT22;400;53.550;9.932;2023-05-10T09:54:45;18.90;95.60
837;DHT22;400;53.550;9.932;2023-05-10T09:57:22;19.00;96.90
837;DHT22;400;53.550;9.932;2023-05-10T09:59:56;19.00;96.70
837;DHT22;400;53.550;9.932;2023-05-10T10:02:31;18.80;97.30
837;DHT22;400;53.550;9.932;2023-05-10T10:05:01;18.60;98.40
837;DHT22;400;53.550;9.932;2023-05-10T10:07:32;18.50;98.90
837;DHT22;400;53.550;9.932;2023-05-10T10:10:06;18.50;98.70
837;DHT22;400;53.550;9.932;2023-05-10T10:12:39;18.50;99.30
837;DHT22;400;53.550;9.932;2023-05-10T10:15:10;18.40;99.70
837;DHT22;400;53.550;9.932;2023-05-10T10:17:38;18.40;99.90
837;DHT22;400;53.550;9.932;2023-05-10T10:20:07;18.30;99.90
837;DHT22;400;53.550;9.932;2023-05-10T10:22:34;18.20;99.90
837;DHT22;400;53.550;9.932;2023-05-10T10:25:04;18.10;99.90
837;DHT22;400;53.550;9.932;2023-05-10T10:27:41;18.20;99.90
837;DHT22;400;53.550;9.932;2023-05-10T10:30:20;18.10;99.90
837;DHT22;400;53.550;9.932;2023-05-10T10:33:06;18.10;99.90
837;DHT22;400;53.550;9.932;2023-05-10T10:35:34;18.20;99.90
837;DHT22;400;53.550;9.932;2023-05-10T10:38:01;18.20;99.90
837;DHT22;400;53.550;9.932;2023-05-10T10:40:30;18.20;99.90
837;DHT22;400;53.550;9.932;2023-05-10T10:42:57;18.30;99.90
837;DHT22;400;53.550;9.932;2023-05-10T10:45:25;18.40;99.90
837;DHT22;400;53.550;9.932;2023-05-10T10:48:24;18.40;99.90
837;DHT22;400;53.550;9.932;2023-05-10T10:50:57;18.40;99.90
837;DHT22;400;53.550;9.932;2023-05-10T10:53:26;18.40;99.90
837;DHT22;400;53.550;9.932;2023-05-10T10:56:05;18.50;99.90
837;DHT22;400;53.550;9.932;2023-05-10T10:58:34;18.50;99.90
837;DHT22;400;53.550;9.932;2023-05-10T11:01:15;18.40;99.90
837;DHT22;400;53.550;9.932;2023-05-10T11:04:18;18.50;99.90
837;DHT22;400;53.550;9.932;2023-05-10T11:06:46;18.50;99.90
837;DHT22;400;53.550;9.932;2023-05-10T11:09:13;18.50;99.90
837;DHT22;400;53.550;9.932;2023-05-10T11:11:55;18.60;99.90
837;DHT22;400;53.550;9.932;2023-05-10T11:14:32;18.60;99.90
837;DHT22;400;53.550;9.932;2023-05-10T11:17:01;18.60;99.90
837;DHT22;400;53.550;9.932;2023-05-10T11:22:53;18.60;99.90
837;DHT22;400;53.550;9.932;2023-05-10T11:25:26;18.50;99.90
837;DHT22;400;53.550;9.932;2023-05-10T11:27:53;18.40;99.90
837;DHT22;400;53.550;9.932;2023-05-10T11:30:23;18.50;99.90
837;DHT22;400;53.550;9.932;2023-05-10T11:32:59;18.40;99.90
837;DHT22;400;53.550;9.932;2023-05-10T11:35:29;18.50;99.90
837;DHT22;400;53.550;9.932;2023-05-10T11:38:07;18.50;99.90
837;DHT22;400;53.550;9.932;2023-05-10T11:40:39;18.40;99.90
837;DHT22;400;53.550;9.932;2023-05-10T11:43:09;18.40;99.90
837;DHT22;400;53.550;9.932;2023-05-10T11:45:37;18.40;99.90
837;DHT22;400;53.550;9.932;2023-05-10T11:48:08;18.40;99.90
837;DHT22;400;53.550;9.932;2023-05-10T11:50:35;18.40;99.90
837;DHT22;400;53.550;9.932;2023-05-10T11:53:03;18.30;99.90
837;DHT22;400;53.550;9.932;2023-05-10T11:55:34;18.30;99.90
837;DHT22;400;53.550;9.932;2023-05-10T11:58:02;18.40;99.90
837;DHT22;400;53.550;9.932;2023-05-10T12:00:32;18.40;99.90
837;DHT22;400;53.550;9.932;2023-05-10T12:03:09;18.30;99.90
837;DHT22;400;53.550;9.932;2023-05-10T12:05:39;18.30;99.90
837;DHT22;400;53.550;9.932;2023-05-10T12:08:21;18.40;99.90
837;DHT22;400;53.550;9.932;2023-05-10T12:11:03;18.40;99.90
837;DHT22;400;53.550;9.932;2023-05-10T12:13:32;18.40;99.90
837;DHT22;400;53.550;9.932;2023-05-10T12:15:59;18.50;99.90
837;DHT22;400;53.550;9.932;2023-05-10T12:18:41;18.50;99.90
837;DHT22;400;53.550;9.932;2023-05-10T12:21:10;18.60;99.90
837;DHT22;400;53.550;9.932;2023-05-10T12:23:38;18.70;99.90
837;DHT22;400;53.550;9.932;2023-05-10T12:26:08;18.70;99.90
837;DHT22;400;53.550;9.932;2023-05-10T12:28:37;18.60;99.90
837;DHT22;400;53.550;9.932;2023-05-10T12:31:08;18.70;99.90
837;DHT22;400;53.550;9.932;2023-05-10T12:33:36;18.70;99.90
837;DHT22;400;53.550;9.932;2023-05-10T12:36:08;18.70;99.90
837;DHT22;400;53.550;9.932;2023-05-10T12:38:39;18.70;99.90
837;DHT22;400;53.550;9.932;2023-05-10T12:41:10;18.80;99.90
837;DHT22;400;53.550;9.932;2023-05-10T12:43:40;18.80;99.90
837;DHT22;400;53.550;9.932;2023-05-10T12:46:13;18.90;99.90
837;DHT22;400;53.550;9.932;2023-05-10T12:48:45;19.00;99.90
837;DHT22;400;53.550;9.932;2023-05-10T12:51:22;19.00;99.90
837;DHT22;400;53.550;9.932;2023-05-10T12:53:53;19.00;99.90
837;DHT22;400;53.550;9.932;2023-05-10T12:56:21;19.10;99.90
837;DHT22;400;53.550;9.932;2023-05-10T12:58:48;19.00;99.90
837;DHT22;400;53.550;9.932;2023-05-10T13:01:15;19.10;99.90
837;DHT22;400;53.550;9.932;2023-05-10T13:03:43;19.20;99.90
837;DHT22;400;53.550;9.932;2023-05-10T13:06:10;19.30;99.90
837;DHT22;400;53.550;9.932;2023-05-10T13:08:39;19.30;99.90
837;DHT22;400;53.550;9.932;2023-05-10T13:11:10;19.30;99.90
837;DHT22;400;53.550;9.932;2023-05-10T13:13:48;19.20;99.90
837;DHT22;400;53.550;9.932;2023-05-10T13:16:17;19.30;99.90
837;DHT22;400;53.550;9.932;2023-05-10T13:18:46;19.30;99.90
837;DHT22;400;53.550;9.932;2023-05-10T13:21:14;19.30;99.90
837;DHT22;400;53.550;9.932;2023-05-10T13:23:42;19.40;99.90
837;DHT22;400;53.550;9.932;2023-05-10T13:26:10;19.50;99.90
837;DHT22;400;53.550;9.932;2023-05-10T13:28:39;19.60;99.90
837;DHT22;400;53.550;9.932;2023-05-10T13:31:07;19.70;99.90
837;DHT22;400;53.550;9.932;2023-05-10T13:33:34;19.70;99.90
837;DHT22;400;53.550;9.932;2023-05-10T13:36:01;19.80;99.90
837;DHT22;400;53.550;9.932;2023-05-10T13:38:28;19.80;99.90
837;DHT22;400;53.550;9.932;2023-05-10T13:40:55;19.80;99.90
837;DHT22;400;53.550;9.932;2023-05-10T13:43:26;19.80;99.90
837;DHT22;400;53.550;9.932;2023-05-10T13:45:54;19.80;99.90
837;DHT22;400;53.550;9.932;2023-05-10T13:48:22;19.80;99.90
837;DHT22;400;53.550;9.932;2023-05-10T13:50:49;19.80;99.90
837;DHT22;400;53.550;9.932;2023-05-10T13:53:16;19.80;99.90
837;DHT22;400;53.550;9.932;2023-05-10T13:59:12;19.90;99.90
837;DHT22;400;53.550;9.932;2023-05-10T14:01:39;19.90;99.90
837;DHT22;400;53.550;9.932;2023-05-10T14:04:08;20.00;99.90
837;DHT22;400;53.550;9.932;2023-05-10T14:06:35;20.10;99.90
837;DHT22;400;53.550;9.932;2023-05-10T14:09:03;20.10;99.90
837;DHT22;400;53.550;9.932;2023-05-10T14:11:30;20.20;99.90
837;DHT22;400;53.550;9.932;2023-05-10T14:13:57;20.20;99.90
837;DHT22;400;53.550;9.932;2023-05-10T14:16:29;20.20;99.90
837;DHT22;400;53.550;9.932;2023-05-10T14:18:58;20.20;99.90
837;DHT22;400;53.550;9.932;2023-05-10T14:21:25;20.20;99.90
837;DHT22;400;53.550;9.932;2023-05-10T14:23:54;20.20;99.90
837;DHT22;400;53.550;9.932;2023-05-10T14:26:24;20.20;99.90
837;DHT22;400;53.550;9.932;2023-05-10T14:28:56;20.20;99.90
837;DHT22;400;53.550;9.932;2023-05-10T14:31:25;20.20;99.90
837;DHT22;400;53.550;9.932;2023-05-10T14:33:52;20.20;99.90
837;DHT22;400;53.550;9.932;2023-05-10T14:36:19;20.20;99.90
837;DHT22;400;53.550;9.932;2023-05-10T14:38:47;20.20;99.90
837;DHT22;400;53.550;9.932;2023-05-10T14:41:14;20.20;99.90
837;DHT22;400;53.550;9.932;2023-05-10T14:43:42;20.10;99.90
837;DHT22;400;53.550;9.932;2023-05-10T14:46:09;20.10;99.90
837;DHT22;400;53.550;9.932;2023-05-10T14:48:38;20.10;99.90
837;DHT22;400;53.550;9.932;2023-05-10T14:51:07;20.10;99.90
837;DHT22;400;53.550;9.932;2023-05-10T14:53:39;20.00;99.90
837;DHT22;400;53.550;9.932;2023-05-10T14:56:12;19.90;99.90
837;DHT22;400;53.550;9.932;2023-05-10T14:58:43;19.80;99.90
837;DHT22;400;53.550;9.932;2023-05-10T15:01:11;19.80;99.90
837;DHT22;400;53.550;9.932;2023-05-10T15:03:40;19.70;99.90
837;DHT22;400;53.550;9.932;2023-05-10T15:06:09;19.60;99.90
837;DHT22;400;53.550;9.932;2023-05-10T15:08:41;19.60;99.90
837;DHT22;400;53.550;9.932;2023-05-10T15:11:12;19.60;99.90
837;DHT22;400;53.550;9.932;2023-05-10T15:13:43;19.60;99.90
837;DHT22;400;53.550;9.932;2023-05-10T15:16:10;19.60;99.90
837;DHT22;400;53.550;9.932;2023-05-10T15:18:41;19.70;99.90
837;DHT22;400;53.550;9.932;2023-05-10T15:21:10;19.70;99.90
837;DHT22;400;53.550;9.932;2023-05-10T15:23:37;19.60;99.90
837;DHT22;400;53.550;9.932;2023-05-10T15:26:08;19.60;99.90
837;DHT22;400;53.550;9.932;2023-05-10T15:28:42;19.60;99.90
837;DHT22;400;53.550;9.932;2023-05-10T15:31:21;19.70;99.90
837;DHT22;400;53.550;9.932;2023-05-10T15:33:58;19.70;99.90
837;DHT22;400;53.550;9.932;2023-05-10T15:36:31;19.70;99.90
837;DHT22;400;53.550;9.932;2023-05-10T15:39:01;19.60;99.90
837;DHT22;400;53.550;9.932;2023-05-10T15:41:28;19.60;99.90
837;DHT22;400;53.550;9.932;2023-05-10T15:44:00;19.50;99.90
837;DHT22;400;53.550;9.932;2023-05-10T15:46:30;19.50;99.90
837;DHT22;400;53.550;9.932;2023-05-10T15:48:58;19.40;99.90
837;DHT22;400;53.550;9.932;2023-05-10T15:51:25;19.40;99.90
837;DHT22;400;53.550;9.932;2023-05-10T15:53:52;19.30;99.90
837;DHT22;400;53.550;9.932;2023-05-10T15:56:21;19.30;99.90
837;DHT22;400;53.550;9.932;2023-05-10T15:58:49;19.20;99.90
837;DHT22;400;53.550;9.932;2023-05-10T16:01:16;18.40;99.90
837;DHT22;400;53.550;9.932;2023-05-10T16:03:43;18.20;99.90
837;DHT22;400;53.550;9.932;2023-05-10T16:06:13;18.30;99.90
837;DHT22;400;53.550;9.932;2023-05-10T16:08:40;18.40;99.90
837;DHT22;400;53.550;9.932;2023-05-10T16:11:07;18.50;99.90
837;DHT22;400;53.550;9.932;2023-05-10T16:13:35;18.50;99.90
837;DHT22;400;53.550;9.932;2023-05-10T16:16:02;18.60;99.90
837;DHT22;400;53.550;9.932;2023-05-10T16:18:29;18.70;99.90
837;DHT22;400;53.550;9.932;2023-05-10T16:20:58;18.70;99.90
837;DHT22;400;53.550;9.932;2023-05-10T16:23:27;18.80;99.90
837;DHT22;400;53.550;9.932;2023-05-10T16:25:56;18.80;99.90
837;DHT22;400;53.550;9.932;2023-05-10T16:28:27;18.80;99.90
837;DHT22;400;53.550;9.932;2023-05-10T16:30:55;18.80;99.90
837;DHT22;400;53.550;9.932;2023-05-10T16:33:25;18.80;99.90
837;DHT22;400;53.550;9.932;2023-05-10T16:35:52;18.80;99.90
837;DHT22;400;53.550;9.932;2023-05-10T16:38:19;18.80;99.90
837;DHT22;400;53.550;9.932;2023-05-10T16:40:48;18.70;99.90
837;DHT22;400;53.550;9.932;2023-05-10T16:43:15;18.80;99.90
837;DHT22;400;53.550;9.932;2023-05-10T16:45:48;18.80;99.90
837;DHT22;400;53.550;9.932;2023-05-10T16:48:19;18.80;99.90
837;DHT22;400;53.550;9.932;2023-05-10T16:50:48;18.70;99.90
837;DHT22;400;53.550;9.932;2023-05-10T16:53:20;18.70;99.90
837;DHT22;400;53.550;9.932;2023-05-10T16:55:49;18.70;99.90
837;DHT22;400;53.550;9.932;2023-05-10T16:58:16;18.60;99.90
837;DHT22;400;53.550;9.932;2023-05-10T17:00:43;18.50;99.90